Time;durP1;ratioP1;P1;durP2;ratioP2;P2;SDS_P1;SDS_P2;PMS_P1;PMS_P2;Temp;Humidity;BMP_temperature;BMP_pressure;BME280_temperature;BME280_humidity;BME280_pressure;Samples;Min_cycle;Max_cycle;Signal;HPM_P1;HPM_P2
2023/01/30 00:02:00;;;;;;;17.40;5.15;;;6.80;99.90;;;;;;5153974;27;20061;-83
2023/01/30 00:04:46;;;;;;;13.73;4.05;;;6.80;99.90;;;;;;5140651;27;20111;-82
2023/01/30 00:07:32;;;;;;;15.38;4.78;;;6.80;99.90;;;;;;5151016;27;20058;-82
2023/01/30 00:10:18;;;;;;;15.43;4.13;;;6.70;99.90;;;;;;5133333;27;20063;-82
2023/01/30 00:13:05;;;;;;;18.23;4.95;;;6.60;99.90;;;;;;5151023;27;20061;-81
2023/01/30 00:15:51;;;;;;;12.73;5.38;;;6.60;99.90;;;;;;5151260;27;20079;-81
2023/01/30 00:18:38;;;;;;;23.27;5.88;;;6.50;99.90;;;;;;5150345;27;20414;-80
2023/01/30 00:21:24;;;;;;;19.00;5.45;;;6.40;99.90;;;;;;5121694;27;20053;-81
2023/01/30 00:24:10;;;;;;;31.38;6.63;;;6.40;99.90;;;;;;5156808;27;20118;-81
2023/01/30 00:26:57;;;;;;;30.08;5.60;;;6.30;99.90;;;;;;5153992;27;20051;-80
2023/01/30 00:29:43;;;;;;;22.52;5.85;;;6.30;99.90;;;;;;5136128;27;20062;-80
2023/01/30 00:32:29;;;;;;;19.42;5.68;;;6.30;99.90;;;;;;5152773;27;20049;-80
2023/01/30 00:35:15;;;;;;;23.85;6.82;;;6.30;99.90;;;;;;5152830;27;20039;-80
2023/01/30 00:38:01;;;;;;;17.60;5.38;;;6.30;99.90;;;;;;5150908;27;20134;-83
2023/01/30 00:40:48;;;;;;;33.38;9.20;;;6.30;99.90;;;;;;5154027;27;20057;-83
2023/01/30 00:49:43;;;;;;;25.50;7.72;;;6.20;99.90;;;;;;5154187;27;20039;-83
2023/01/30 00:52:29;;;;;;;23.98;7.60;;;6.30;99.90;;;;;;5152886;27;20042;-81
2023/01/30 00:55:16;;;;;;;34.22;9.90;;;6.30;99.90;;;;;;5150430;27;20095;-82
2023/01/30 00:58:02;;;;;;;20.95;8.88;;;6.30;99.90;;;;;;5135154;27;20054;-81
2023/01/30 01:00:49;;;;;;;24.17;7.57;;;6.30;99.90;;;;;;5151135;27;20043;-85
2023/01/30 01:03:38;;;;;;;23.05;7.82;;;6.30;99.90;;;;;;5155360;27;20145;-82
2023/01/30 01:06:24;;;;;;;30.80;8.57;;;6.30;99.90;;;;;;5154473;27;20058;-84
2023/01/30 01:09:10;;;;;;;31.05;7.75;;;6.30;99.90;;;;;;5155003;27;20042;-83
2023/01/30 01:11:56;;;;;;;34.42;8.55;;;6.30;99.90;;;;;;5143708;27;20051;-82
2023/01/30 01:14:42;;;;;;;34.03;8.63;;;6.20;99.90;;;;;;5140458;27;20412;-84
2023/01/30 01:17:28;;;;;;;28.00;7.20;;;6.30;99.90;;;;;;5154109;27;20516;-84
2023/01/30 01:20:16;;;;;;;35.83;7.93;;;6.20;99.90;;;;;;5135051;27;20058;-81
2023/01/30 01:23:02;;;;;;;31.58;8.65;;;6.30;99.90;;;;;;5154485;27;20051;-83
2023/01/30 01:25:48;;;;;;;28.65;7.13;;;6.30;99.90;;;;;;5154019;27;20089;-81
2023/01/30 01:28:35;;;;;;;30.73;8.32;;;6.30;99.90;;;;;;5154798;27;20050;-82
2023/01/30 01:31:22;;;;;;;37.38;8.52;;;6.30;99.90;;;;;;5154587;27;20053;-79
2023/01/30 01:34:09;;;;;;;27.98;8.07;;;6.30;99.90;;;;;;5160701;27;20070;-83
2023/01/30 01:36:55;;;;;;;35.42;7.47;;;6.30;99.90;;;;;;5154637;27;20053;-83
2023/01/30 01:42:46;;;;;;;41.65;8.23;;;6.40;99.90;;;;;;5154642;27;20042;-85
2023/01/30 01:45:32;;;;;;;32.83;7.72;;;6.40;99.90;;;;;;5157923;27;20059;-84
2023/01/30 01:48:26;;;;;;;32.22;8.25;;;6.40;99.90;;;;;;5154424;27;20043;-84
2023/01/30 01:51:18;;;;;;;33.65;7.57;;;6.40;99.90;;;;;;5153752;27;20050;-85
2023/01/30 01:54:12;;;;;;;34.92;8.05;;;6.40;99.90;;;;;;5153820;27;20053;-81
2023/01/30 01:57:01;;;;;;;33.70;8.30;;;6.40;99.90;;;;;;5159730;27;20409;-83
2023/01/30 01:59:52;;;;;;;32.38;7.57;;;6.40;99.90;;;;;;5135654;27;20047;-84
2023/01/30 02:02:42;;;;;;;36.38;8.00;;;6.50;99.90;;;;;;5155026;27;20103;-81
2023/01/30 02:05:32;;;;;;;29.80;7.22;;;6.50;99.90;;;;;;5153819;27;20043;-81
2023/01/30 02:08:26;;;;;;;29.00;7.65;;;6.60;99.90;;;;;;5153769;27;20050;-83
2023/01/30 02:11:25;;;;;;;30.52;7.88;;;6.60;99.90;;;;;;5152211;27;20051;-81
2023/01/30 02:14:13;;;;;;;37.88;8.25;;;6.60;99.90;;;;;;5152372;27;20562;-81
2023/01/30 02:16:59;;;;;;;31.38;7.80;;;6.60;99.90;;;;;;5139308;27;20055;-84
2023/01/30 02:19:58;;;;;;;28.42;6.57;;;6.70;99.90;;;;;;5154601;27;20042;-84
2023/01/30 02:23:22;;;;;;;29.17;6.45;;;6.70;99.90;;;;;;5153550;27;20058;-83
2023/01/30 02:26:33;;;;;;;25.38;6.00;;;6.60;99.90;;;;;;5153245;27;20067;-86
2023/01/30 02:29:56;;;;;;;22.77;6.32;;;6.70;99.90;;;;;;5134576;27;20562;-85
2023/01/30 02:32:57;;;;;;;35.40;8.68;;;6.70;99.90;;;;;;5153977;27;20495;-84
2023/01/30 02:36:11;;;;;;;35.03;7.28;;;6.70;99.90;;;;;;5154738;27;20042;-83
2023/01/30 02:39:21;;;;;;;32.13;6.45;;;6.60;99.90;;;;;;5142783;27;20051;-84
2023/01/30 02:42:28;;;;;;;37.42;7.88;;;6.50;99.90;;;;;;5152983;27;20057;-81
2023/01/30 02:45:28;;;;;;;30.17;7.22;;;6.50;99.90;;;;;;5120598;27;20055;-83
2023/01/30 02:48:41;;;;;;;25.88;6.40;;;6.50;99.90;;;;;;5153470;27;20045;-84
2023/01/30 02:51:30;;;;;;;33.05;6.32;;;6.50;99.90;;;;;;5134448;27;20423;-83
2023/01/30 02:54:16;;;;;;;25.85;5.60;;;6.50;99.90;;;;;;5137710;27;20042;-81
2023/01/30 02:57:02;;;;;;;30.70;6.63;;;6.60;99.90;;;;;;5152155;27;20047;-81
2023/01/30 02:59:59;;;;;;;27.83;5.07;;;6.50;99.90;;;;;;5134779;27;20050;-83
2023/01/30 03:03:05;;;;;;;21.27;4.55;;;6.50;99.90;;;;;;5140646;27;20058;-83
2023/01/30 03:05:54;;;;;;;;;;;6.50;99.90;;;;;;5156474;27;20057;-81
2023/01/30 03:08:40;;;;;;;26.58;4.55;;;6.50;99.90;;;;;;5153259;27;19919;-82
2023/01/30 03:11:56;;;;;;;32.50;6.97;;;6.50;99.90;;;;;;5151682;27;20413;-81
2023/01/30 03:14:59;;;;;;;34.08;5.80;;;6.50;99.90;;;;;;5151219;27;20145;-82
2023/01/30 03:17:46;;;;;;;27.23;6.43;;;6.40;99.90;;;;;;5142140;27;20046;-83
2023/01/30 03:20:40;;;;;;;29.98;6.72;;;6.40;99.90;;;;;;5153223;27;20050;-81
2023/01/30 03:23:26;;;;;;;31.15;6.07;;;6.50;99.90;;;;;;5154777;27;20054;-79
2023/01/30 03:26:18;;;;;;;31.00;6.32;;;6.40;99.90;;;;;;5136919;27;20050;-82
2023/01/30 03:29:04;;;;;;;26.52;7.22;;;6.40;99.90;;;;;;5137204;27;20199;-80
2023/01/30 03:31:50;;;;;;;31.70;6.93;;;6.40;99.90;;;;;;5152475;27;20042;-80
2023/01/30 03:34:36;;;;;;;50.97;7.68;;;6.40;99.90;;;;;;5152078;27;20133;-81
2023/01/30 03:37:22;;;;;;;48.85;7.75;;;6.30;99.90;;;;;;5152305;27;20111;-85
2023/01/30 03:40:10;;;;;;;32.30;7.13;;;6.30;99.90;;;;;;5152073;27;20049;-81
2023/01/30 03:42:56;;;;;;;31.05;6.70;;;6.20;99.90;;;;;;5151351;27;20305;-78
2023/01/30 03:45:42;;;;;;;45.13;6.35;;;6.10;99.90;;;;;;5138367;27;20046;-79
2023/01/30 03:48:29;;;;;;;32.55;7.32;;;6.20;99.90;;;;;;5136962;27;20042;-82
2023/01/30 03:51:15;;;;;;;29.38;5.78;;;6.10;99.90;;;;;;5150970;27;20103;-83
2023/01/30 03:54:02;;;;;;;44.15;6.63;;;6.10;99.90;;;;;;5152700;27;20476;-81
2023/01/30 03:56:48;;;;;;;38.88;6.03;;;6.10;99.90;;;;;;5152649;27;20046;-81
2023/01/30 03:59:34;;;;;;;33.65;6.78;;;6.00;99.90;;;;;;5150564;27;20402;-81
2023/01/30 04:02:21;;;;;;;33.42;6.30;;;6.00;99.90;;;;;;5150942;27;20047;-85
2023/01/30 04:05:08;;;;;;;26.88;6.15;;;6.00;99.90;;;;;;5153011;27;20054;-80
2023/01/30 04:07:57;;;;;;;27.80;6.28;;;6.00;99.90;;;;;;5152058;27;20043;-83
2023/01/30 04:10:43;;;;;;;35.75;6.22;;;6.00;99.90;;;;;;5153834;27;20057;-84
2023/01/30 04:13:29;;;;;;;30.00;4.80;;;6.00;99.90;;;;;;5151423;27;20443;-81
2023/01/30 04:16:19;;;;;;;36.60;6.82;;;6.00;99.90;;;;;;5135180;27;20050;-79
2023/01/30 04:19:05;;;;;;;22.13;4.93;;;6.00;99.90;;;;;;5150660;27;20156;-80
2023/01/30 04:21:51;;;;;;;40.55;7.10;;;6.00;99.90;;;;;;5150963;27;20561;-80
2023/01/30 04:24:37;;;;;;;30.13;5.65;;;6.00;99.90;;;;;;5158412;27;20050;-80
2023/01/30 04:27:23;;;;;;;32.22;5.75;;;5.90;99.90;;;;;;5137454;27;20050;-80
2023/01/30 04:30:10;;;;;;;37.58;6.13;;;5.90;99.90;;;;;;5150585;27;20050;-79
2023/01/30 04:32:56;;;;;;;32.33;6.38;;;5.90;99.90;;;;;;5151131;27;20043;-80
2023/01/30 04:35:51;;;;;;;31.33;5.65;;;5.90;99.90;;;;;;5149780;27;20139;-80
2023/01/30 04:38:37;;;;;;;33.47;5.63;;;5.90;99.90;;;;;;5148906;27;20505;-81
2023/01/30 04:41:23;;;;;;;30.65;5.57;;;5.90;99.90;;;;;;5151664;27;20038;-85
2023/01/30 04:44:09;;;;;;;37.60;5.88;;;5.90;99.90;;;;;;5150661;27;20498;-83
2023/01/30 04:46:55;;;;;;;28.63;5.18;;;5.90;99.90;;;;;;5134509;27;20050;-84
2023/01/30 04:49:42;;;;;;;29.83;5.38;;;5.90;99.90;;;;;;5150810;27;20146;-81
2023/01/30 04:52:28;;;;;;;57.40;7.43;;;5.90;99.90;;;;;;5150016;27;20046;-81
2023/01/30 04:55:14;;;;;;;34.78;7.35;;;5.90;99.90;;;;;;5150977;27;20046;-83
2023/01/30 04:58:00;;;;;;;38.17;6.25;;;5.90;99.90;;;;;;5151688;27;20130;-80
2023/01/30 05:00:47;;;;;;;28.48;8.13;;;5.90;99.90;;;;;;5152666;27;20073;-84
2023/01/30 05:03:34;;;;;;;40.40;5.57;;;5.90;99.90;;;;;;5149423;27;20091;-81
2023/01/30 05:06:21;;;;;;;27.80;5.85;;;5.90;99.90;;;;;;5149672;27;20043;-80
2023/01/30 05:09:08;;;;;;;39.17;6.13;;;5.90;99.90;;;;;;5152289;27;20054;-81
2023/01/30 05:11:54;;;;;;;24.35;5.75;;;5.80;99.90;;;;;;5149082;27;20062;-83
2023/01/30 05:14:40;;;;;;;26.77;5.20;;;5.80;99.90;;;;;;5152932;27;20106;-84
2023/01/30 05:17:26;;;;;;;33.17;7.05;;;5.90;99.90;;;;;;5152343;27;20084;-81
2023/01/30 05:20:13;;;;;;;35.33;5.93;;;5.80;99.90;;;;;;5150163;27;20043;-81
2023/01/30 05:22:59;;;;;;;36.70;6.30;;;5.90;99.90;;;;;;5147306;27;20094;-81
2023/01/30 05:25:45;;;;;;;37.17;5.15;;;5.90;99.90;;;;;;5150357;27;20175;-80
2023/01/30 05:28:32;;;;;;;42.53;6.07;;;5.90;99.90;;;;;;5134320;27;20051;-85
2023/01/30 05:31:18;;;;;;;32.45;6.00;;;5.90;99.90;;;;;;5149668;27;20093;-80
2023/01/30 05:34:05;;;;;;;33.58;6.35;;;5.90;99.90;;;;;;5154702;27;20043;-82
2023/01/30 05:36:51;;;;;;;29.83;5.18;;;5.90;99.90;;;;;;5149211;27;20061;-80
2023/01/30 05:39:37;;;;;;;31.48;5.57;;;5.90;99.90;;;;;;5149820;27;20050;-81
2023/01/30 05:42:23;;;;;;;46.53;8.45;;;5.80;99.90;;;;;;5150065;27;20410;-81
2023/01/30 05:45:10;;;;;;;34.55;6.45;;;5.90;99.90;;;;;;5150626;27;20054;-81
2023/01/30 05:47:56;;;;;;;34.40;7.50;;;5.80;99.90;;;;;;5150785;27;20058;-84
2023/01/30 05:50:42;;;;;;;53.33;10.48;;;5.80;99.90;;;;;;5154143;27;20054;-82
2023/01/30 05:53:31;;;;;;;38.75;9.07;;;5.90;99.90;;;;;;5153236;27;20050;-84
2023/01/30 05:56:18;;;;;;;40.00;7.80;;;5.90;99.90;;;;;;5158360;27;20053;-81
2023/01/30 05:59:04;;;;;;;37.28;6.78;;;5.90;99.90;;;;;;5152784;27;20049;-81
2023/01/30 06:01:50;;;;;;;26.35;5.90;;;6.00;99.90;;;;;;5152087;27;20046;-85
2023/01/30 06:04:36;;;;;;;44.92;7.35;;;6.00;99.90;;;;;;5156113;27;20043;-87
2023/01/30 06:07:22;;;;;;;29.05;6.63;;;6.00;99.90;;;;;;5153583;27;20058;-81
2023/01/30 06:10:08;;;;;;;33.38;6.40;;;6.00;99.90;;;;;;5153600;27;20470;-82
2023/01/30 06:12:55;;;;;;;29.42;6.25;;;6.00;99.90;;;;;;5152813;27;20708;-84
2023/01/30 06:15:41;;;;;;;30.75;5.47;;;6.00;99.90;;;;;;5154704;27;20054;-80
2023/01/30 06:18:27;;;;;;;26.83;4.95;;;6.00;99.90;;;;;;5155575;27;20085;-83
2023/01/30 06:21:14;;;;;;;26.38;6.18;;;6.00;99.90;;;;;;5153448;27;20050;-83
2023/01/30 06:24:01;;;;;;;39.15;7.90;;;6.00;99.90;;;;;;5152942;27;20146;-81
2023/01/30 06:26:47;;;;;;;38.42;6.75;;;6.00;99.90;;;;;;5154208;27;20589;-85
2023/01/30 06:29:33;;;;;;;28.60;5.90;;;6.00;99.90;;;;;;5172666;27;20504;-81
2023/01/30 06:32:19;;;;;;;45.58;7.00;;;6.00;99.90;;;;;;5154983;27;20082;-83
2023/01/30 06:35:05;;;;;;;36.42;7.20;;;6.00;99.90;;;;;;5173171;27;20050;-81
2023/01/30 06:37:51;;;;;;;43.47;8.48;;;6.00;99.90;;;;;;5160267;27;20145;-82
2023/01/30 06:40:38;;;;;;;41.10;7.13;;;6.00;99.90;;;;;;5173537;27;20564;-84
2023/01/30 06:43:24;;;;;;;39.60;6.10;;;6.00;99.90;;;;;;5173759;27;20046;-82
2023/01/30 06:46:10;;;;;;;27.83;8.48;;;5.90;99.90;;;;;;5172850;27;20122;-84
2023/01/30 06:48:56;;;;;;;37.75;7.05;;;5.90;99.90;;;;;;5154582;27;20058;-84
2023/01/30 06:51:43;;;;;;;36.05;7.70;;;5.90;99.90;;;;;;5176628;27;20054;-83
2023/01/30 06:54:29;;;;;;;40.42;8.35;;;5.90;99.90;;;;;;5172870;27;20581;-83
2023/01/30 06:57:15;;;;;;;42.00;8.50;;;5.90;99.90;;;;;;5174528;27;20046;-81
2023/01/30 07:00:04;;;;;;;29.50;6.85;;;6.00;99.90;;;;;;5157985;27;20045;-85
2023/01/30 07:02:50;;;;;;;52.08;7.88;;;6.00;99.90;;;;;;5173072;27;20054;-86
2023/01/30 07:05:38;;;;;;;26.73;5.88;;;6.00;99.90;;;;;;5155060;27;20042;-85
2023/01/30 07:08:24;;;;;;;46.20;7.22;;;6.00;99.90;;;;;;5174391;27;20050;-84
2023/01/30 07:11:11;;;;;;;35.17;6.35;;;6.00;99.90;;;;;;5172932;27;20561;-84
2023/01/30 07:13:57;;;;;;;35.88;8.82;;;6.00;99.90;;;;;;5153762;27;20114;-81
2023/01/30 07:16:43;;;;;;;43.50;8.00;;;6.00;99.90;;;;;;5157262;27;20406;-82
2023/01/30 07:19:29;;;;;;;32.35;7.03;;;6.00;99.90;;;;;;5171968;27;20046;-84
2023/01/30 07:22:15;;;;;;;41.70;8.57;;;6.00;99.90;;;;;;5172607;27;20046;-81
2023/01/30 07:25:02;;;;;;;41.20;7.22;;;6.00;99.90;;;;;;5173909;27;20042;-86
2023/01/30 07:27:57;;;;;;;51.05;8.13;;;6.10;99.90;;;;;;5174141;27;20076;-80
2023/01/30 07:30:43;;;;;;;42.50;7.45;;;6.10;99.90;;;;;;5157362;27;20060;-85
2023/01/30 07:33:29;;;;;;;42.92;8.63;;;6.10;99.90;;;;;;5172479;27;20046;-85
2023/01/30 07:36:15;;;;;;;30.85;7.25;;;6.10;99.90;;;;;;5173470;27;20129;-87
2023/01/30 07:39:03;;;;;;;36.33;8.23;;;6.10;99.90;;;;;;5172346;27;20042;-85
2023/01/30 07:41:49;;;;;;;37.85;6.00;;;6.10;99.90;;;;;;5172416;27;20106;-80
2023/01/30 07:44:38;;;;;;;32.25;6.82;;;6.10;99.90;;;;;;5175941;27;20378;-80
2023/01/30 07:47:24;;;;;;;36.42;5.72;;;6.10;99.90;;;;;;5157021;27;20042;-80
2023/01/30 07:50:10;;;;;;;36.08;6.07;;;6.20;99.90;;;;;;5175237;27;20042;-83
2023/01/30 07:52:56;;;;;;;40.22;7.65;;;6.20;99.90;;;;;;5157109;27;20090;-82
2023/01/30 07:55:43;;;;;;;33.95;6.32;;;6.20;99.90;;;;;;5171979;27;20146;-82
2023/01/30 07:58:29;;;;;;;37.58;7.68;;;6.20;99.90;;;;;;5175146;27;20057;-81
2023/01/30 08:01:16;;;;;;;46.90;7.80;;;6.10;99.90;;;;;;5172198;27;20043;-82
2023/01/30 08:04:02;;;;;;;30.02;5.28;;;6.10;99.90;;;;;;5173616;27;20540;-79
2023/01/30 08:06:49;;;;;;;25.20;5.82;;;6.20;99.90;;;;;;5177957;27;20042;-84
2023/01/30 08:09:35;;;;;;;42.67;6.53;;;6.20;99.90;;;;;;5171422;27;20042;-81
2023/01/30 08:12:21;;;;;;;33.50;6.20;;;6.20;99.90;;;;;;5171444;27;20042;-82
2023/01/30 08:15:09;;;;;;;33.97;6.90;;;6.20;99.90;;;;;;5172698;27;20138;-81
2023/01/30 08:17:56;;;;;;;47.17;9.30;;;6.20;99.90;;;;;;5172141;27;20134;-80
2023/01/30 08:20:42;;;;;;;35.85;6.45;;;6.30;99.90;;;;;;5172158;27;20046;-82
2023/01/30 08:23:28;;;;;;;44.58;7.40;;;6.30;99.90;;;;;;5173859;27;20592;-83
2023/01/30 08:26:14;;;;;;;26.30;6.88;;;6.40;99.90;;;;;;5171309;27;20050;-82
2023/01/30 08:29:00;;;;;;;39.58;6.88;;;6.40;99.90;;;;;;5171487;27;20053;-83
2023/01/30 08:31:48;;;;;;;37.50;6.30;;;6.40;99.90;;;;;;5154221;27;20050;-85
2023/01/30 08:34:34;;;;;;;32.05;7.78;;;6.40;99.90;;;;;;5141916;27;20394;-83
2023/01/30 08:37:21;;;;;;;39.35;8.35;;;6.40;99.90;;;;;;5148038;27;20046;-83
2023/01/30 08:40:08;;;;;;;39.13;8.70;;;6.40;99.90;;;;;;5171851;27;20141;-81
2023/01/30 08:42:54;;;;;;;34.60;7.18;;;6.40;99.90;;;;;;5142326;27;20058;-81
2023/01/30 08:45:40;;;;;;;34.20;6.60;;;6.40;99.90;;;;;;5170474;27;20065;-79
2023/01/30 08:48:26;;;;;;;35.30;6.38;;;6.40;99.90;;;;;;5172437;27;20486;-80
2023/01/30 08:51:12;;;;;;;33.78;8.52;;;6.40;99.90;;;;;;5170933;27;20042;-81
2023/01/30 08:53:58;;;;;;;30.33;6.55;;;6.50;99.90;;;;;;5171152;27;20482;-83
2023/01/30 08:56:44;;;;;;;35.80;6.53;;;6.50;99.90;;;;;;5152985;27;20387;-79
2023/01/30 08:59:30;;;;;;;36.67;8.35;;;6.50;99.90;;;;;;5172307;27;20046;-81
2023/01/30 09:02:16;;;;;;;33.20;6.00;;;6.50;99.90;;;;;;5172693;27;20405;-82
2023/01/30 09:05:04;;;;;;;28.13;6.00;;;6.50;99.90;;;;;;5173844;27;20048;-79
2023/01/30 09:07:50;;;;;;;37.83;8.60;;;6.60;99.90;;;;;;5171164;27;20387;-80
2023/01/30 09:10:36;;;;;;;33.38;5.93;;;6.50;99.90;;;;;;5170370;27;20512;-80
2023/01/30 09:13:22;;;;;;;38.90;8.57;;;6.60;99.90;;;;;;5171624;27;20560;-80
2023/01/30 09:16:11;;;;;;;42.10;7.47;;;6.60;99.90;;;;;;5172135;27;20478;-85
2023/01/30 09:18:57;;;;;;;37.95;7.25;;;6.60;99.90;;;;;;5177595;27;20067;-80
2023/01/30 09:21:43;;;;;;;38.75;8.75;;;6.50;99.90;;;;;;5156874;27;20054;-78
2023/01/30 09:24:30;;;;;;;36.75;6.57;;;6.60;99.90;;;;;;5175032;27;20050;-81
2023/01/30 09:27:16;;;;;;;31.63;5.88;;;6.60;99.90;;;;;;5174157;27;20053;-79
2023/01/30 09:30:04;;;;;;;46.58;8.73;;;6.70;99.90;;;;;;5155435;27;20494;-82
2023/01/30 09:32:50;;;;;;;39.00;8.70;;;6.70;99.90;;;;;;5147010;27;20053;-84
2023/01/30 09:35:36;;;;;;;42.60;7.43;;;6.70;99.90;;;;;;5175611;27;20133;-80
2023/01/30 09:38:22;;;;;;;34.13;7.25;;;6.70;99.90;;;;;;5174672;27;20125;-81
2023/01/30 09:41:29;;;;;;;42.45;6.82;;;6.80;99.90;;;;;;5176887;27;20057;-80
2023/01/30 09:44:31;;;;;;;50.75;6.85;;;6.90;99.90;;;;;;5174357;27;20042;-80
2023/01/30 09:47:41;;;;;;;30.83;6.68;;;6.90;99.90;;;;;;5160735;27;20038;-84
2023/01/30 09:50:36;;;;;;;45.60;7.80;;;6.90;99.90;;;;;;5154716;27;20137;-80
2023/01/30 09:53:22;;;;;;;30.75;6.88;;;7.10;99.90;;;;;;5174467;27;20137;-81
2023/01/30 09:56:08;;;;;;;30.77;7.35;;;7.10;99.90;;;;;;5182449;27;20387;-79
2023/01/30 09:58:57;;;;;;;30.20;6.55;;;7.00;99.90;;;;;;5161018;27;20050;-80
2023/01/30 10:02:02;;;;;;;46.65;8.07;;;7.10;99.90;;;;;;5159456;27;20064;-79
2023/01/30 10:04:49;;;;;;;47.33;8.52;;;7.50;99.90;;;;;;5156486;27;20401;-84
2023/01/30 10:07:53;;;;;;;25.92;4.03;;;7.50;99.90;;;;;;5174751;27;20038;-82
2023/01/30 10:11:08;;;;;;;20.30;3.80;;;6.70;99.90;;;;;;5174431;27;20057;-80
2023/01/30 10:14:13;;;;;;;13.55;2.38;;;6.40;99.90;;;;;;5176777;27;20046;-80
2023/01/30 10:17:17;;;;;;;17.30;2.80;;;6.20;99.90;;;;;;5155854;27;20055;-82
2023/01/30 10:20:22;;;;;;;26.88;4.40;;;6.10;99.90;;;;;;5174384;27;20389;-79
2023/01/30 10:23:20;;;;;;;26.08;3.90;;;6.00;99.90;;;;;;5183308;27;20042;-83
2023/01/30 10:26:12;;;;;;;22.70;3.80;;;5.80;99.90;;;;;;5177686;27;20077;-81
2023/01/30 10:29:04;;;;;;;23.15;3.92;;;5.80;99.90;;;;;;5164900;27;20057;-80
2023/01/30 10:32:14;;;;;;;28.02;4.28;;;6.10;99.90;;;;;;5178382;27;20058;-83
2023/01/30 10:35:12;;;;;;;28.17;4.65;;;6.40;99.90;;;;;;5179752;27;20085;-84
2023/01/30 10:38:25;;;;;;;23.38;5.53;;;6.60;99.90;;;;;;5178610;27;20494;-80
2023/01/30 10:41:23;;;;;;;23.15;3.88;;;6.80;99.90;;;;;;5177230;27;20491;-79
2023/01/30 10:44:12;;;;;;;28.50;5.13;;;6.90;99.90;;;;;;5160286;27;20069;-78
2023/01/30 10:47:11;;;;;;;26.63;4.47;;;7.10;99.90;;;;;;5173912;27;20397;-84
2023/01/30 10:50:10;;;;;;;23.30;4.90;;;7.20;99.90;;;;;;5160366;27;20046;-83
2023/01/30 10:53:25;;;;;;;31.98;5.72;;;7.40;99.90;;;;;;5176643;27;20057;-79
2023/01/30 10:56:23;;;;;;;25.13;4.65;;;7.60;99.90;;;;;;5173768;27;20053;-82
2023/01/30 10:59:21;;;;;;;24.33;5.22;;;7.70;99.90;;;;;;5178115;27;20110;-84
2023/01/30 11:02:41;;;;;;;34.50;4.85;;;7.60;99.90;;;;;;5174750;27;20407;-79
2023/01/30 11:05:39;;;;;;;23.33;6.65;;;7.70;99.90;;;;;;5160120;27;20401;-82
2023/01/30 11:08:28;;;;;;;35.97;6.70;;;7.90;99.90;;;;;;5174334;27;20042;-79
2023/01/30 11:11:26;;;;;;;37.38;7.22;;;8.10;99.90;;;;;;5173869;27;20045;-79
2023/01/30 11:14:13;;;;;;;24.35;5.38;;;8.20;99.90;;;;;;5155414;27;20056;-79
2023/01/30 11:17:01;;;;;;;35.58;7.55;;;8.40;99.90;;;;;;5172924;27;20490;-82
2023/01/30 11:19:55;;;;;;;26.85;5.78;;;8.60;99.90;;;;;;5153673;27;20057;-80
2023/01/30 11:22:47;;;;;;;24.35;4.38;;;8.80;99.90;;;;;;5180234;27;20153;-83
2023/01/30 11:25:49;;;;;;;24.40;4.03;;;8.90;99.90;;;;;;5179571;27;20065;-84
2023/01/30 11:28:41;;;;;;;15.98;4.07;;;9.10;99.90;;;;;;5173244;27;20046;-79
2023/01/30 11:31:29;;;;;;;17.48;4.85;;;9.30;99.90;;;;;;5173056;27;20383;-79
2023/01/30 11:34:17;;;;;;;26.95;5.57;;;9.40;99.90;;;;;;5172759;27;20486;-85
2023/01/30 11:37:34;;;;;;;31.58;5.30;;;9.50;99.90;;;;;;5172130;27;20150;-83
2023/01/30 11:40:24;;;;;;;22.38;5.05;;;9.00;99.90;;;;;;5167261;27;20133;-85
2023/01/30 11:43:12;;;;;;;30.98;4.93;;;8.80;99.90;;;;;;5175781;27;20051;-78
2023/01/30 11:46:00;;;;;;;31.55;5.63;;;8.70;99.90;;;;;;5176189;27;20061;-83
2023/01/30 11:48:57;;;;;;;22.75;5.25;;;8.50;99.90;;;;;;5172657;27;20042;-82
2023/01/30 11:51:46;;;;;;;34.20;6.03;;;8.50;99.90;;;;;;5171485;27;20592;-79
2023/01/30 11:54:43;;;;;;;34.85;6.07;;;8.80;99.90;;;;;;5172577;27;20053;-85
2023/01/30 11:57:29;;;;;;;28.55;5.38;;;9.20;99.90;;;;;;5175289;27;20129;-84
2023/01/30 12:00:22;;;;;;;40.15;8.98;;;9.00;99.90;;;;;;5141888;27;20046;-85
2023/01/30 12:03:15;;;;;;;30.30;6.57;;;9.30;99.90;;;;;;5172694;27;20129;-79
2023/01/30 12:06:02;;;;;;;37.30;6.28;;;9.60;99.90;;;;;;5177113;27;20038;-82
2023/01/30 12:08:52;;;;;;;35.83;6.53;;;10.40;99.90;;;;;;5171379;27;20141;-82
2023/01/30 12:11:41;;;;;;;44.03;7.93;;;10.50;99.90;;;;;;5174234;27;20061;-84
2023/01/30 12:14:41;;;;;;;44.65;7.10;;;10.00;99.90;;;;;;5173287;27;20046;-85
2023/01/30 12:17:40;;;;;;;24.67;5.65;;;10.00;99.90;;;;;;5170833;27;20491;-81
2023/01/30 12:21:01;;;;;;;33.08;6.35;;;10.50;99.90;;;;;;5171967;27;20068;-81
2023/01/30 12:24:07;;;;;;;33.55;6.80;;;10.50;99.90;;;;;;5171097;27;20057;-80
2023/01/30 12:27:12;;;;;;;37.55;6.32;;;10.90;99.90;;;;;;5152656;27;20046;-84
2023/01/30 12:30:23;;;;;;;28.25;5.90;;;11.20;99.90;;;;;;5157152;27;20085;-84
2023/01/30 12:33:15;;;;;;;37.38;8.27;;;11.10;99.90;;;;;;5172275;27;20050;-80
2023/01/30 12:36:25;;;;;;;33.00;7.47;;;11.80;99.90;;;;;;5139300;27;20114;-85
2023/01/30 12:39:35;;;;;;;31.80;7.18;;;11.80;99.90;;;;;;5176837;27;20057;-79
2023/01/30 12:43:05;;;;;;;27.80;5.75;;;11.90;99.90;;;;;;5172028;27;20053;-80
2023/01/30 12:46:12;;;;;;;24.45;6.47;;;12.20;99.90;;;;;;5173746;27;20050;-78
2023/01/30 12:49:16;;;;;;;26.45;5.88;;;12.50;99.90;;;;;;5171586;27;20050;-83
2023/01/30 12:52:15;;;;;;;32.90;5.63;;;12.70;99.90;;;;;;5170978;27;20514;-81
2023/01/30 12:55:35;;;;;;;25.35;6.47;;;13.20;99.90;;;;;;5171401;27;20050;-82
2023/01/30 12:58:44;;;;;;;28.75;6.28;;;13.00;99.90;;;;;;5175726;27;20053;-82
2023/01/30 13:02:03;;;;;;;50.05;10.45;;;13.20;99.90;;;;;;5161907;27;20050;-85
2023/01/30 13:05:05;;;;;;;28.00;5.95;;;12.10;99.90;;;;;;5175387;27;20043;-84
2023/01/30 13:08:09;;;;;;;42.85;8.00;;;11.60;99.90;;;;;;5175320;27;20197;-79
2023/01/30 13:11:33;;;;;;;45.25;9.65;;;11.60;99.90;;;;;;5176755;27;20106;-78
2023/01/30 13:14:32;;;;;;;42.38;8.85;;;11.10;99.90;;;;;;5175130;27;20421;-80
2023/01/30 13:17:41;;;;;;;45.92;8.07;;;10.70;99.90;;;;;;5177296;27;20057;-80
2023/01/30 13:20:57;;;;;;;34.90;7.63;;;10.20;99.90;;;;;;5140866;27;20046;-79
2023/01/30 13:23:49;;;;;;;55.88;10.57;;;9.70;99.90;;;;;;5175431;27;20076;-79
2023/01/30 13:26:38;;;;;;;41.65;9.25;;;9.40;99.90;;;;;;5175123;27;20126;-79
2023/01/30 13:29:35;;;;;;;42.88;8.63;;;9.30;99.90;;;;;;5160311;27;20061;-80
2023/01/30 13:32:24;;;;;;;39.67;8.85;;;9.10;99.90;;;;;;5181000;27;20069;-84
2023/01/30 13:35:19;;;;;;;49.38;8.32;;;9.20;99.90;;;;;;5159421;27;20057;-80
2023/01/30 13:38:09;;;;;;;50.30;10.90;;;9.50;99.90;;;;;;5175189;27;20074;-84
2023/01/30 13:40:57;;;;;;;41.05;8.45;;;10.00;99.90;;;;;;5174446;27;20138;-80
2023/01/30 13:43:49;;;;;;;41.35;9.65;;;10.10;99.90;;;;;;5175540;27;20049;-79
2023/01/30 13:46:38;;;;;;;42.08;8.38;;;10.10;99.90;;;;;;5174605;27;20458;-84
2023/01/30 13:49:50;;;;;;;36.70;7.82;;;10.00;99.90;;;;;;5175375;27;20046;-81
2023/01/30 13:53:07;;;;;;;37.55;8.48;;;10.00;99.90;;;;;;5139373;27;20050;-81
2023/01/30 13:56:10;;;;;;;39.83;8.18;;;10.10;99.90;;;;;;5179776;27;20126;-82
2023/01/30 13:59:20;;;;;;;40.58;7.78;;;10.20;99.90;;;;;;5173981;27;20085;-85
2023/01/30 14:02:19;;;;;;;35.50;8.43;;;10.30;99.90;;;;;;5174554;27;20133;-80
2023/01/30 14:05:08;;;;;;;37.85;8.50;;;10.30;99.90;;;;;;5173698;27;20046;-80
2023/01/30 14:07:55;;;;;;;40.63;9.07;;;10.40;99.90;;;;;;5176079;27;20134;-83
2023/01/30 14:10:41;;;;;;;39.58;8.45;;;10.20;99.90;;;;;;5173803;27;20061;-84
2023/01/30 14:13:27;;;;;;;48.00;8.07;;;10.00;99.90;;;;;;5178881;27;20137;-82
2023/01/30 14:16:14;;;;;;;41.58;7.97;;;9.80;99.90;;;;;;5158397;27;20072;-80
2023/01/30 14:19:29;;;;;;;40.50;7.88;;;9.80;99.90;;;;;;5174576;27;20562;-81
2023/01/30 14:22:33;;;;;;;46.97;9.02;;;9.80;99.90;;;;;;5172874;27;20042;-79
2023/01/30 14:25:21;;;;;;;44.65;8.70;;;9.70;99.90;;;;;;5158266;27;20082;-85
2023/01/30 14:28:07;;;;;;;43.25;6.75;;;9.60;99.90;;;;;;5175470;27;20056;-84
2023/01/30 14:30:57;;;;;;;30.52;8.07;;;9.70;99.90;;;;;;5174338;27;20109;-81
2023/01/30 14:33:50;;;;;;;55.88;9.48;;;9.60;99.90;;;;;;5173223;27;20046;-84
2023/01/30 14:36:36;;;;;;;37.42;7.47;;;9.70;99.90;;;;;;5173414;27;20137;-81
2023/01/30 14:39:40;;;;;;;42.72;7.60;;;9.70;99.90;;;;;;5174408;27;20046;-85
2023/01/30 14:42:29;;;;;;;30.42;6.78;;;9.60;99.90;;;;;;5181634;27;20045;-83
2023/01/30 14:45:36;;;;;;;21.63;4.53;;;9.00;99.90;;;;;;5179407;27;20199;-83
2023/01/30 14:48:34;;;;;;;19.50;4.72;;;8.30;99.90;;;;;;5173101;27;20049;-84
2023/01/30 14:51:42;;;;;;;27.50;5.00;;;7.60;99.90;;;;;;5173633;27;20052;-85
2023/01/30 14:54:33;;;;;;;18.90;4.90;;;7.30;99.90;;;;;;5173512;27;20053;-81
2023/01/30 14:57:31;;;;;;;47.00;8.25;;;7.10;99.90;;;;;;5174383;27;20046;-85
2023/01/30 15:00:19;;;;;;;33.33;5.60;;;7.10;99.90;;;;;;5176229;27;20045;-86
2023/01/30 15:03:17;;;;;;;29.95;7.22;;;7.00;99.90;;;;;;5173541;27;20038;-83